Time;durP1;ratioP1;P1;durP2;ratioP2;P2;SDS_P1;SDS_P2;PMS_P1;PMS_P2;Temp;Humidity;BMP_temperature;BMP_pressure;BME280_temperature;BME280_humidity;BME280_pressure;Samples;Min_cycle;Max_cycle;Signal;HPM_P1;HPM_P2
2021/01/09 00:01:18;;;;;;;29.95;15.65;;;;;;;-0.03;99.13;101932.91;5002812;28;20022;-77
2021/01/09 00:03:44;;;;;;;28.77;16.35;;;;;;;-0.11;99.68;101930.56;5001348;28;20134;-78
2021/01/09 00:06:09;;;;;;;28.58;15.63;;;;;;;0.01;99.63;101931.06;5000488;28;20049;-77
2021/01/09 00:08:35;;;;;;;29.27;16.23;;;;;;;-0.05;99.85;101943.25;4992098;28;20030;-76
2021/01/09 00:11:00;;;;;;;28.77;16.23;;;;;;;-0.02;99.37;101927.69;5003973;28;20511;-77
2021/01/09 00:13:26;;;;;;;29.30;16.30;;;;;;;-0.06;99.08;101928.69;5039118;28;20120;-78
2021/01/09 00:15:51;;;;;;;24.60;14.10;;;;;;;-0.06;98.41;101938.13;5043037;28;20052;-77
2021/01/09 00:18:17;;;;;;;34.88;15.98;;;;;;;0.04;99.00;101929.22;5022988;28;20040;-77
2021/01/09 00:20:42;;;;;;;30.67;16.35;;;;;;;-0.08;98.90;101940.75;5023031;28;20033;-79
2021/01/09 00:23:08;;;;;;;35.10;16.50;;;;;;;-0.13;99.05;101939.22;5037320;28;20025;-79
2021/01/09 00:25:33;;;;;;;27.42;14.77;;;;;;;-0.07;99.26;101939.88;5021480;28;20043;-77
2021/01/09 00:27:59;;;;;;;30.70;17.02;;;;;;;-0.09;99.22;101938.25;4990454;28;20056;-78
2021/01/09 00:30:24;;;;;;;30.73;17.05;;;;;;;-0.06;99.15;101935.56;5022407;28;20041;-79
2021/01/09 00:32:50;;;;;;;29.23;16.45;;;;;;;-0.12;99.15;101940.91;5022849;28;20033;-78
2021/01/09 00:35:16;;;;;;;33.63;16.48;;;;;;;-0.10;99.29;101946.88;5000210;28;20328;-76
2021/01/09 00:37:41;;;;;;;30.65;15.57;;;;;;;-0.10;99.44;101941.72;5008631;28;20097;-76
2021/01/09 00:40:07;;;;;;;32.42;16.52;;;;;;;-0.17;99.72;101953.97;5060437;28;20044;-76
2021/01/09 00:42:40;;;;;;;36.33;17.15;;;;;;;-0.08;99.26;101956.22;5044034;28;20104;-78
2021/01/09 00:45:08;;;;;;;30.27;15.52;;;;;;;-0.06;99.03;101957.06;5017794;28;20049;-76
2021/01/09 00:47:33;;;;;;;31.80;16.92;;;;;;;-0.23;99.12;101951.56;5043714;28;20684;-76
2021/01/09 00:49:58;;;;;;;32.72;16.90;;;;;;;-0.23;99.38;101956.72;5059986;28;20068;-76
2021/01/09 00:52:24;;;;;;;31.80;17.05;;;;;;;-0.36;99.60;101952.81;5031233;28;20206;-77
2021/01/09 00:54:50;;;;;;;35.40;17.88;;;;;;;-0.27;99.17;101963.69;5019884;28;20423;-78
2021/01/09 00:57:15;;;;;;;34.15;16.35;;;;;;;-0.30;99.66;101961.25;5027585;28;20025;-77
2021/01/09 00:59:41;;;;;;;31.42;16.17;;;;;;;-0.22;99.39;101972.16;5046389;28;20045;-78
2021/01/09 01:02:11;;;;;;;26.77;15.02;;;;;;;-0.16;99.15;101972.84;5031205;28;20048;-77
2021/01/09 01:04:37;;;;;;;28.27;14.57;;;;;;;-0.24;99.43;101973.94;5029194;28;20095;-78
2021/01/09 01:07:02;;;;;;;25.88;14.38;;;;;;;-0.28;99.44;101974.09;5042846;28;20542;-77
2021/01/09 01:09:28;;;;;;;28.38;14.88;;;;;;;-0.20;99.17;101975.53;5045685;28;20032;-77
2021/01/09 01:11:53;;;;;;;26.75;15.18;;;;;;;-0.30;99.28;101979.28;5026830;28;20041;-76
2021/01/09 01:14:19;;;;;;;30.88;16.25;;;;;;;-0.28;99.33;101980.09;5027622;28;20447;-76
2021/01/09 01:16:49;;;;;;;28.23;16.50;;;;;;;-0.29;99.36;101983.53;5038208;28;20061;-76
2021/01/09 01:19:15;;;;;;;29.90;15.90;;;;;;;-0.35;99.74;101988.03;4987637;28;20079;-77
2021/01/09 01:21:40;;;;;;;25.77;14.15;;;;;;;-0.38;99.92;101988.13;5040765;28;20029;-77
2021/01/09 01:24:06;;;;;;;33.50;16.83;;;;;;;-0.35;99.95;101994.03;5026398;28;20617;-77
2021/01/09 01:26:32;;;;;;;30.08;15.30;;;;;;;-0.39;99.79;101992.44;5024363;28;20033;-75
2021/01/09 01:29:00;;;;;;;29.50;14.80;;;;;;;-0.36;99.82;101989.75;5045856;28;20029;-78
2021/01/09 01:31:25;;;;;;;30.05;15.38;;;;;;;-0.38;99.92;101998.44;5022759;28;20052;-76
2021/01/09 01:33:51;;;;;;;28.13;15.60;;;;;;;-0.36;99.85;101992.34;5021401;28;20034;-76
2021/01/09 01:36:18;;;;;;;35.05;15.90;;;;;;;-0.38;99.87;101996.69;5038856;28;20044;-75
2021/01/09 01:38:43;;;;;;;29.45;16.20;;;;;;;-0.29;99.82;102004.16;5007954;28;20821;-75
2021/01/09 01:41:09;;;;;;;26.98;14.90;;;;;;;-0.27;99.70;101996.38;5028644;28;20040;-77
2021/01/09 01:43:37;;;;;;;30.83;16.33;;;;;;;-0.31;99.90;102002.53;5024748;28;20105;-77
2021/01/09 01:46:05;;;;;;;26.15;13.73;;;;;;;-0.35;100.00;101988.88;5039328;28;20040;-78
2021/01/09 01:48:32;;;;;;;27.42;15.20;;;;;;;-0.32;99.50;101998.25;5021386;28;20120;-77
2021/01/09 01:50:58;;;;;;;25.98;15.18;;;;;;;-0.34;99.49;102000.03;5034809;28;20071;-77
2021/01/09 01:53:26;;;;;;;26.42;15.50;;;;;;;-0.44;99.58;102010.63;5029345;28;20456;-76
2021/01/09 01:55:52;;;;;;;27.80;13.85;;;;;;;-0.43;99.59;102012.31;4989388;28;20104;-78
2021/01/09 01:58:17;;;;;;;25.70;14.77;;;;;;;-0.43;100.00;102008.91;5054260;28;20064;-77
2021/01/09 02:00:47;;;;;;;30.92;15.77;;;;;;;-0.48;100.00;102011.59;5057023;28;20048;-74
2021/01/09 02:03:15;;;;;;;28.83;14.18;;;;;;;-0.36;100.00;102007.81;5038384;28;20021;-73
2021/01/09 02:05:46;;;;;;;30.52;15.95;;;;;;;-0.37;100.00;102011.28;5038205;28;20028;-80
2021/01/09 02:08:13;;;;;;;26.52;14.73;;;;;;;-0.35;100.00;102016.41;5038008;28;20021;-75
2021/01/09 02:10:44;;;;;;;31.77;14.57;;;;;;;-0.27;100.00;102015.28;5037639;28;20025;-77
2021/01/09 02:13:21;;;;;;;27.75;14.30;;;;;;;-0.32;99.43;102008.56;5039362;28;20029;-75
2021/01/09 02:15:49;;;;;;;25.58;13.85;;;;;;;-0.25;99.65;102017.81;5045987;28;20041;-77
2021/01/09 02:18:19;;;;;;;22.90;13.25;;;;;;;-0.28;99.93;102011.03;5037038;28;20064;-75
2021/01/09 02:20:48;;;;;;;29.77;15.35;;;;;;;-0.28;99.67;102017.91;5053599;28;20049;-77
2021/01/09 02:23:14;;;;;;;26.55;14.40;;;;;;;-0.22;99.56;102013.41;5039574;28;20020;-76
2021/01/09 02:25:39;;;;;;;25.20;13.75;;;;;;;-0.22;99.52;102008.25;5038247;28;20113;-77
2021/01/09 02:28:05;;;;;;;30.67;15.65;;;;;;;-0.29;99.66;102017.06;5036653;28;20085;-75
2021/01/09 02:30:34;;;;;;;26.25;13.95;;;;;;;-0.27;99.13;102004.97;5035020;28;20025;-77
2021/01/09 02:33:06;;;;;;;26.17;14.23;;;;;;;-0.28;99.19;102011.03;5035239;28;20037;-78
2021/01/09 02:35:33;;;;;;;25.27;13.95;;;;;;;-0.26;99.53;102010.97;5051619;28;20049;-74
2021/01/09 02:37:59;;;;;;;30.80;15.80;;;;;;;-0.28;99.52;102007.59;5016259;28;20101;-73
2021/01/09 02:40:25;;;;;;;26.05;12.82;;;;;;;-0.23;99.75;102010.88;5053249;28;20076;-75
2021/01/09 02:42:51;;;;;;;25.98;14.27;;;;;;;-0.31;99.39;102011.09;5035166;28;20109;-76
2021/01/09 02:45:17;;;;;;;28.23;14.68;;;;;;;-0.25;99.33;102013.50;5040164;28;20037;-75
2021/01/09 02:47:42;;;;;;;31.42;15.65;;;;;;;-0.28;99.59;102015.34;5025530;28;20060;-75
2021/01/09 02:50:12;;;;;;;31.92;15.05;;;;;;;-0.30;99.67;102019.66;5035637;28;20037;-78
2021/01/09 02:52:39;;;;;;;29.80;14.50;;;;;;;-0.17;99.49;102010.72;5020087;28;20045;-79
2021/01/09 02:55:06;;;;;;;27.88;14.65;;;;;;;-0.26;99.48;102016.13;5011716;28;20036;-77
2021/01/09 02:57:31;;;;;;;28.77;15.63;;;;;;;-0.31;98.91;102015.41;5010948;28;20034;-76
2021/01/09 02:59:58;;;;;;;28.70;15.25;;;;;;;-0.37;99.34;102018.19;5006072;28;20030;-78
2021/01/09 03:02:23;;;;;;;24.38;13.10;;;;;;;-0.32;99.05;102021.44;5027696;28;20029;-79
2021/01/09 03:04:49;;;;;;;26.90;14.48;;;;;;;-0.43;99.51;102022.63;5030586;28;20112;-74
2021/01/09 03:07:14;;;;;;;24.02;13.65;;;;;;;-0.43;99.81;102026.94;5015369;28;20046;-77
2021/01/09 03:09:40;;;;;;;23.20;13.02;;;;;;;-0.44;100.00;102030.41;5054816;28;20037;-77
2021/01/09 03:12:07;;;;;;;28.45;14.25;;;;;;;-0.38;99.52;102037.09;5035800;28;20063;-76
2021/01/09 03:14:32;;;;;;;25.10;13.75;;;;;;;-0.30;99.27;102035.16;5035510;28;20034;-78
2021/01/09 03:16:58;;;;;;;22.15;14.07;;;;;;;-0.33;99.53;102041.25;5045584;28;20033;-75
2021/01/09 03:19:23;;;;;;;28.98;14.35;;;;;;;-0.35;99.82;102047.34;5023534;28;20033;-76
2021/01/09 03:21:49;;;;;;;25.13;14.70;;;;;;;-0.33;99.48;102037.84;5013342;28;20037;-76
2021/01/09 03:24:16;;;;;;;29.70;14.77;;;;;;;-0.30;99.62;102042.88;5038384;28;20155;-77
2021/01/09 03:26:41;;;;;;;24.65;13.90;;;;;;;-0.25;99.31;102047.00;5020976;28;20087;-79
2021/01/09 03:29:07;;;;;;;30.17;16.15;;;;;;;-0.29;99.86;102047.16;5021593;28;20495;-76
2021/01/09 03:31:33;;;;;;;31.90;15.70;;;;;;;-0.29;99.68;102040.25;5020736;28;20376;-77
2021/01/09 03:33:58;;;;;;;29.50;15.13;;;;;;;-0.29;99.85;102034.28;5022123;28;20048;-76
2021/01/09 03:36:24;;;;;;;30.67;16.15;;;;;;;-0.27;99.63;102050.53;5021410;28;20075;-77
2021/01/09 03:38:49;;;;;;;29.08;16.27;;;;;;;-0.19;99.63;102048.56;5037430;28;20095;-74
2021/01/09 03:41:15;;;;;;;27.95;15.00;;;;;;;-0.27;99.32;102043.63;5003603;28;20037;-78
2021/01/09 03:43:40;;;;;;;28.05;15.60;;;;;;;-0.26;99.50;102045.34;5053089;28;20116;-77
2021/01/09 03:46:06;;;;;;;28.75;15.10;;;;;;;-0.25;99.13;102054.75;5029043;28;20040;-77
2021/01/09 03:48:31;;;;;;;33.88;14.75;;;;;;;-0.12;99.34;102051.81;5042546;28;20036;-76
2021/01/09 03:50:57;;;;;;;27.20;15.57;;;;;;;-0.14;99.51;102051.88;5021338;28;20554;-76
2021/01/09 03:53:22;;;;;;;31.08;14.70;;;;;;;-0.21;99.65;102048.63;5038633;28;20079;-78
2021/01/09 03:55:48;;;;;;;27.25;15.32;;;;;;;-0.18;99.56;102065.75;5029153;28;20045;-75
2021/01/09 03:58:13;;;;;;;28.90;14.88;;;;;;;-0.17;98.43;102059.72;5021063;28;20495;-76
2021/01/09 04:00:39;;;;;;;25.58;14.90;;;;;;;-0.18;98.05;102060.59;5038053;28;20029;-77
2021/01/09 04:03:05;;;;;;;26.75;14.48;;;;;;;-0.13;98.63;102065.59;5004016;28;20037;-76
2021/01/09 04:05:30;;;;;;;27.98;15.40;;;;;;;-0.17;98.39;102059.72;5038517;28;20037;-77
2021/01/09 04:07:56;;;;;;;25.98;14.15;;;;;;;-0.17;99.04;102067.44;5038737;28;20038;-76
2021/01/09 04:10:21;;;;;;;26.73;15.63;;;;;;;-0.21;99.06;102074.44;5019822;28;20128;-79
2021/01/09 04:12:47;;;;;;;31.63;16.10;;;;;;;-0.23;98.93;102080.50;5010192;28;20115;-75
2021/01/09 04:15:12;;;;;;;26.77;14.98;;;;;;;-0.21;99.37;102076.13;5035792;28;20038;-76
2021/01/09 04:17:38;;;;;;;25.92;14.52;;;;;;;-0.22;99.59;102083.03;5020686;28;20053;-78
2021/01/09 04:20:05;;;;;;;25.92;15.27;;;;;;;-0.21;99.22;102083.88;5004678;28;20101;-76
2021/01/09 04:22:31;;;;;;;26.75;15.45;;;;;;;-0.24;98.79;102084.81;5019963;28;20043;-76
2021/01/09 04:24:56;;;;;;;28.95;16.65;;;;;;;-0.24;99.05;102086.56;5046671;28;20100;-76
2021/01/09 04:27:22;;;;;;;26.83;14.07;;;;;;;-0.30;99.35;102089.28;5039123;28;20047;-77
2021/01/09 04:29:47;;;;;;;24.15;15.27;;;;;;;-0.29;98.38;102094.41;4984675;28;20041;-76
2021/01/09 04:32:13;;;;;;;25.30;14.70;;;;;;;-0.31;98.62;102093.63;5014790;28;20048;-75
2021/01/09 04:34:38;;;;;;;22.02;14.05;;;;;;;-0.41;99.07;102093.03;5018801;28;20108;-76
2021/01/09 04:37:03;;;;;;;24.73;14.05;;;;;;;-0.35;98.94;102102.31;5018058;28;20152;-74
2021/01/09 04:39:29;;;;;;;22.00;13.40;;;;;;;-0.36;99.45;102107.53;5017727;28;20037;-75
2021/01/09 04:41:55;;;;;;;31.40;15.38;;;;;;;-0.45;99.33;102100.91;5032357;28;20025;-76
2021/01/09 04:44:20;;;;;;;26.42;14.00;;;;;;;-0.29;99.80;102109.03;5035837;28;20115;-74
2021/01/09 04:46:51;;;;;;;23.75;14.15;;;;;;;-0.35;99.32;102114.38;5033968;28;20105;-77
2021/01/09 04:49:25;;;;;;;26.95;14.68;;;;;;;-0.35;99.59;102114.38;5018364;28;20046;-75
2021/01/09 04:51:53;;;;;;;25.20;14.07;;;;;;;-0.33;99.54;102120.34;5034574;28;20029;-76
2021/01/09 04:54:24;;;;;;;30.27;15.52;;;;;;;-0.31;99.49;102118.56;5021090;28;20049;-76
2021/01/09 04:56:52;;;;;;;25.73;13.00;;;;;;;-0.33;99.62;102121.19;5013878;28;20547;-76
2021/01/09 04:59:19;;;;;;;33.88;16.95;;;;;;;-0.24;98.99;102114.94;5031372;28;20071;-77
2021/01/09 05:01:47;;;;;;;27.30;15.68;;;;;;;-0.27;99.59;102125.31;5011540;28;20045;-76
2021/01/09 05:04:14;;;;;;;30.95;15.98;;;;;;;-0.32;99.15;102127.16;5016278;28;20029;-75
2021/01/09 05:06:40;;;;;;;24.15;13.77;;;;;;;-0.34;99.31;102132.41;5034199;28;20506;-76
2021/01/09 05:09:07;;;;;;;26.80;15.95;;;;;;;-0.40;99.19;102146.28;5017755;28;20037;-76
2021/01/09 05:11:38;;;;;;;26.20;15.20;;;;;;;-0.35;99.38;102132.44;5022785;28;20039;-77
2021/01/09 05:14:04;;;;;;;28.92;15.85;;;;;;;-0.32;99.07;102134.91;5026205;28;20147;-77
2021/01/09 05:16:31;;;;;;;29.20;16.58;;;;;;;-0.34;99.62;102147.88;5034216;28;20029;-76
2021/01/09 05:18:56;;;;;;;26.30;16.33;;;;;;;-0.43;99.74;102132.63;5014515;28;20036;-75
2021/01/09 05:21:22;;;;;;;29.08;16.25;;;;;;;-0.25;99.34;102147.59;5018625;28;20056;-77
2021/01/09 05:23:59;;;;;;;32.30;17.33;;;;;;;-0.34;99.69;102145.28;5016523;28;20090;-76
2021/01/09 05:26:24;;;;;;;29.95;16.10;;;;;;;-0.35;99.67;102145.31;5017710;28;20040;-76
2021/01/09 05:28:53;;;;;;;29.67;16.88;;;;;;;-0.34;99.89;102147.88;5017007;28;20030;-77
2021/01/09 05:31:20;;;;;;;33.88;18.73;;;;;;;-0.29;99.61;102147.72;5001413;28;20084;-77
2021/01/09 05:33:45;;;;;;;31.65;16.38;;;;;;;-0.31;99.78;102155.50;5034938;28;20033;-76
2021/01/09 05:36:12;;;;;;;36.35;19.25;;;;;;;-0.35;99.79;102156.47;5017556;28;20041;-74
2021/01/09 05:38:39;;;;;;;33.10;18.27;;;;;;;-0.31;99.84;102160.66;5017279;28;20091;-77
2021/01/09 05:41:07;;;;;;;34.78;16.30;;;;;;;-0.24;99.89;102161.34;5036739;28;20041;-76
2021/01/09 05:43:33;;;;;;;33.42;18.33;;;;;;;-0.26;99.85;102160.53;5005337;28;20033;-78
2021/01/09 05:46:00;;;;;;;30.35;15.90;;;;;;;-0.30;99.98;102167.50;5041773;28;20453;-76
2021/01/09 05:48:30;;;;;;;33.13;17.40;;;;;;;-0.29;100.00;102165.78;5040023;28;20037;-77
2021/01/09 05:50:57;;;;;;;29.92;16.02;;;;;;;-0.29;99.95;102165.78;5016966;28;20467;-78
2021/01/09 05:53:36;;;;;;;31.05;16.77;;;;;;;-0.28;99.85;102176.06;5016847;28;20045;-77
2021/01/09 05:56:03;;;;;;;31.50;17.45;;;;;;;-0.27;99.73;102179.47;5017378;28;20104;-78
2021/01/09 05:58:29;;;;;;;31.80;17.65;;;;;;;-0.12;99.37;102167.88;5035786;28;20029;-76
2021/01/09 06:00:57;;;;;;;31.63;17.38;;;;;;;-0.16;99.53;102179.19;5036239;28;20041;-75
2021/01/09 06:03:34;;;;;;;29.35;16.60;;;;;;;-0.21;99.47;102179.28;5000663;28;20094;-74
2021/01/09 06:06:05;;;;;;;25.45;15.20;;;;;;;-0.20;99.55;102178.41;5033553;28;20049;-76
2021/01/09 06:08:31;;;;;;;27.02;15.65;;;;;;;-0.24;99.58;102187.13;4999596;28;20120;-76
2021/01/09 06:11:01;;;;;;;30.85;18.13;;;;;;;-0.22;99.87;102190.50;5041168;28;20108;-76
2021/01/09 06:13:30;;;;;;;35.72;18.60;;;;;;;-0.28;99.86;102188.94;5013274;28;20064;-78
2021/01/09 06:16:04;;;;;;;32.40;16.33;;;;;;;-0.34;99.71;102178.81;5042901;28;20445;-77
2021/01/09 06:18:30;;;;;;;31.33;16.85;;;;;;;-0.29;100.00;102199.28;5017502;28;20037;-74
2021/01/09 06:20:57;;;;;;;31.67;18.02;;;;;;;-0.37;99.81;102191.75;5051787;28;20403;-76
2021/01/09 06:23:22;;;;;;;35.65;17.40;;;;;;;-0.29;99.53;102199.28;5054425;28;20048;-76
2021/01/09 06:25:49;;;;;;;36.05;18.55;;;;;;;-0.35;99.70;102204.63;5046702;28;20096;-75
2021/01/09 06:28:20;;;;;;;32.20;17.77;;;;;;;-0.35;99.93;102209.78;5046511;28;20029;-77
2021/01/09 06:30:45;;;;;;;31.25;17.85;;;;;;;-0.33;99.75;102208.00;5051571;28;20033;-76
2021/01/09 06:33:16;;;;;;;35.85;17.35;;;;;;;-0.34;99.98;102211.47;5024064;28;20420;-75
2021/01/09 06:35:44;;;;;;;33.05;17.85;;;;;;;-0.35;99.12;102218.34;5019149;28;20060;-76
2021/01/09 06:38:09;;;;;;;32.38;17.95;;;;;;;-0.34;99.40;102214.03;4989342;28;20037;-77
2021/01/09 06:40:35;;;;;;;31.05;17.90;;;;;;;-0.39;99.45;102219.31;5019833;28;20056;-74
2021/01/09 06:43:02;;;;;;;28.60;16.30;;;;;;;-0.33;99.44;102214.00;5020285;28;20086;-76
2021/01/09 06:45:29;;;;;;;31.48;17.65;;;;;;;-0.38;99.52;102220.16;5028369;28;20836;-76
2021/01/09 06:48:05;;;;;;;28.98;15.93;;;;;;;-0.38;99.28;102212.44;5022336;28;20030;-76
2021/01/09 06:50:32;;;;;;;28.65;16.90;;;;;;;-0.32;99.29;102222.56;5037141;28;20077;-77
2021/01/09 06:52:59;;;;;;;25.25;14.98;;;;;;;-0.38;99.07;102230.47;5020610;28;20402;-78
2021/01/09 06:55:47;;;;;;;31.20;16.88;;;;;;;-0.38;99.45;102233.88;5003429;28;20035;-76
2021/01/09 06:58:16;;;;;;;27.30;15.60;;;;;;;-0.28;99.18;102230.22;5037894;28;20041;-75
2021/01/09 07:00:41;;;;;;;28.45;15.63;;;;;;;-0.34;99.27;102230.38;5003750;28;20029;-77
2021/01/09 07:03:18;;;;;;;32.60;17.42;;;;;;;-0.35;99.35;102240.72;5036771;28;20048;-77
2021/01/09 07:05:44;;;;;;;27.50;14.45;;;;;;;-0.34;99.72;102238.09;5039581;28;20068;-76
2021/01/09 07:08:21;;;;;;;28.17;16.38;;;;;;;-0.32;99.38;102236.34;5020563;28;20057;-75
2021/01/09 07:10:50;;;;;;;30.30;16.10;;;;;;;-0.35;99.81;102231.25;5004691;28;20049;-76
2021/01/09 07:13:16;;;;;;;32.67;16.33;;;;;;;-0.31;99.78;102247.47;5004635;28;20128;-76
2021/01/09 07:15:42;;;;;;;29.77;16.85;;;;;;;-0.41;99.91;102245.13;5042309;28;20117;-77
2021/01/09 07:18:08;;;;;;;32.22;16.45;;;;;;;-0.42;99.82;102248.59;5021296;28;20307;-76
2021/01/09 07:20:41;;;;;;;33.22;17.48;;;;;;;-0.39;99.91;102252.84;5004377;28;20052;-77
2021/01/09 07:23:08;;;;;;;30.80;16.92;;;;;;;-0.35;99.14;102258.78;5003688;28;20036;-77
2021/01/09 07:25:37;;;;;;;33.33;16.33;;;;;;;-0.41;98.85;102262.34;5012468;28;20094;-76
2021/01/09 07:28:08;;;;;;;36.42;17.17;;;;;;;-0.45;98.48;102255.59;5004850;28;20495;-76
2021/01/09 07:30:34;;;;;;;29.20;16.17;;;;;;;-0.48;98.43;102253.91;5005053;28;20033;-77
2021/01/09 07:33:00;;;;;;;28.63;15.88;;;;;;;-0.44;98.67;102260.66;5020389;28;20041;-76
2021/01/09 07:35:31;;;;;;;26.00;15.02;;;;;;;-0.44;97.71;102267.56;5038984;28;20443;-75
2021/01/09 07:37:59;;;;;;;26.83;14.90;;;;;;;-0.53;97.62;102258.31;5009356;28;20052;-75
2021/01/09 07:40:30;;;;;;;32.53;16.88;;;;;;;-0.59;98.43;102267.06;5039416;28;20518;-76
2021/01/09 07:42:55;;;;;;;31.50;16.02;;;;;;;-0.59;98.78;102269.63;5021632;28;20045;-77
2021/01/09 07:45:22;;;;;;;26.42;15.40;;;;;;;-0.48;98.41;102271.13;5039383;28;20052;-78
2021/01/09 07:47:51;;;;;;;30.42;16.27;;;;;;;-0.55;98.80;102272.97;4988607;28;20073;-75
2021/01/09 07:50:18;;;;;;;29.52;15.70;;;;;;;-0.55;98.55;102278.13;5024184;28;20045;-76
2021/01/09 07:52:45;;;;;;;29.98;16.85;;;;;;;-0.54;98.82;102282.41;4988300;28;20077;-76
2021/01/09 07:55:17;;;;;;;31.35;17.42;;;;;;;-0.56;99.05;102285.94;5036990;28;20065;-78
2021/01/09 07:57:44;;;;;;;27.48;15.85;;;;;;;-0.52;98.95;102284.97;5037487;28;20451;-75
2021/01/09 08:00:11;;;;;;;31.27;16.50;;;;;;;-0.55;98.47;102288.44;5021836;28;20458;-77
2021/01/09 08:02:42;;;;;;;24.88;14.88;;;;;;;-0.46;98.84;102288.22;5038235;28;20041;-77
2021/01/09 08:05:21;;;;;;;24.35;15.02;;;;;;;-0.42;98.20;102292.41;5003925;28;20041;-76
2021/01/09 08:07:55;;;;;;;24.90;14.43;;;;;;;-0.62;98.10;102292.06;5031042;28;20059;-77
2021/01/09 08:10:29;;;;;;;27.85;15.45;;;;;;;-0.59;98.32;102290.25;5030674;28;20096;-76
2021/01/09 08:12:59;;;;;;;28.90;15.38;;;;;;;-0.59;98.10;102287.66;5042716;28;20112;-76
2021/01/09 08:15:26;;;;;;;29.17;15.73;;;;;;;-0.58;98.29;102293.69;5038229;28;20213;-74
2021/01/09 08:17:52;;;;;;;29.05;15.43;;;;;;;-0.45;98.16;102292.50;5037455;28;20037;-74
2021/01/09 08:20:18;;;;;;;29.30;15.98;;;;;;;-0.45;98.13;102287.34;5034963;28;20531;-76
2021/01/09 08:22:52;;;;;;;28.83;16.05;;;;;;;-0.43;98.97;102292.47;5030100;28;20108;-76
2021/01/09 08:25:19;;;;;;;28.48;15.13;;;;;;;-0.40;98.59;102298.41;5037056;28;20052;-76
2021/01/09 08:27:53;;;;;;;30.75;13.95;;;;;;;-0.35;98.75;102303.44;5031290;28;20048;-76
2021/01/09 08:30:21;;;;;;;31.85;14.90;;;;;;;-0.24;99.12;102305.75;5020894;28;20067;-76
2021/01/09 08:32:47;;;;;;;32.70;15.80;;;;;;;-0.11;99.15;102306.31;5037728;28;20037;-76
2021/01/09 08:35:14;;;;;;;30.75;16.15;;;;;;;-0.19;98.58;102311.63;5028762;28;20124;-75
2021/01/09 08:37:40;;;;;;;27.92;14.40;;;;;;;-0.13;98.73;102318.38;5021785;28;20029;-78
2021/01/09 08:40:15;;;;;;;28.75;16.15;;;;;;;-0.17;99.12;102315.03;5021471;28;20101;-76
2021/01/09 08:43:01;;;;;;;29.73;16.15;;;;;;;-0.14;98.39;102317.53;5004187;28;20033;-76
2021/01/09 08:45:36;;;;;;;33.65;16.80;;;;;;;-0.15;98.99;102315.84;4983179;28;20099;-78
2021/01/09 08:48:02;;;;;;;31.27;15.63;;;;;;;-0.14;98.89;102319.25;5020076;28;20124;-76
2021/01/09 08:50:30;;;;;;;34.25;16.83;;;;;;;-0.12;99.10;102323.50;5038220;28;20124;-78
2021/01/09 08:53:01;;;;;;;24.90;13.77;;;;;;;-0.02;98.80;102324.09;5038936;28;20060;-76
2021/01/09 08:55:28;;;;;;;29.67;14.43;;;;;;;-0.10;98.54;102326.88;5005675;28;20033;-78
2021/01/09 08:57:54;;;;;;;25.23;13.48;;;;;;;-0.01;98.03;102329.22;5038228;28;20056;-75
2021/01/09 09:00:21;;;;;;;31.95;14.73;;;;;;;-0.04;98.34;102331.03;5021602;28;20037;-78
2021/01/09 09:02:48;;;;;;;30.48;15.20;;;;;;;-0.07;98.61;102338.88;5017309;28;20036;-75
2021/01/09 09:05:14;;;;;;;24.65;13.52;;;;;;;-0.03;98.07;102343.91;5038366;28;20519;-75
2021/01/09 09:07:44;;;;;;;28.58;15.55;;;;;;;0.03;98.50;102342.91;5032794;28;20033;-78
2021/01/09 09:10:13;;;;;;;30.90;15.68;;;;;;;0.03;97.95;102345.47;5032253;28;20029;-76
2021/01/09 09:12:39;;;;;;;29.95;15.50;;;;;;;0.11;97.52;102346.13;5003319;28;20029;-75
2021/01/09 09:15:09;;;;;;;28.75;15.63;;;;;;;0.05;98.17;102332.53;5017515;28;20048;-78
2021/01/09 09:17:39;;;;;;;31.85;15.32;;;;;;;0.08;98.40;102348.78;5001466;28;20032;-76
2021/01/09 09:20:05;;;;;;;35.13;16.92;;;;;;;0.10;98.57;102348.75;5018075;28;20116;-76
2021/01/09 09:22:31;;;;;;;35.35;17.13;;;;;;;0.03;98.43;102345.47;5001482;28;20052;-79
2021/01/09 09:24:57;;;;;;;39.53;18.70;;;;;;;0.04;98.93;102354.06;5036158;28;20037;-76
2021/01/09 09:27:31;;;;;;;37.75;18.70;;;;;;;0.11;98.41;102355.59;5004011;28;20057;-77
2021/01/09 09:30:07;;;;;;;35.83;18.08;;;;;;;0.08;98.00;102363.44;5001857;28;20044;-76
2021/01/09 09:32:34;;;;;;;37.30;18.77;;;;;;;-0.01;98.11;102369.66;5046576;28;20092;-77
2021/01/09 09:35:23;;;;;;;35.42;18.25;;;;;;;-0.06;98.36;102361.19;5027734;28;20572;-77
2021/01/09 09:37:50;;;;;;;39.50;18.50;;;;;;;-0.04;98.92;102372.31;5018235;28;20041;-78
2021/01/09 09:40:27;;;;;;;36.83;17.15;;;;;;;-0.12;98.29;102358.75;5034685;28;20068;-77
2021/01/09 09:42:54;;;;;;;41.55;18.70;;;;;;;-0.03;98.94;102364.53;5042961;28;20029;-74
2021/01/09 09:45:20;;;;;;;35.47;17.05;;;;;;;-0.04;98.70;102362.84;5031813;28;20029;-77
2021/01/09 09:47:48;;;;;;;33.15;17.15;;;;;;;-0.02;97.94;102358.50;4985059;28;20179;-77
2021/01/09 09:50:25;;;;;;;33.13;15.38;;;;;;;0.12;97.49;102359.88;5020311;28;20040;-77
2021/01/09 09:53:01;;;;;;;26.63;14.00;;;;;;;0.06;97.65;102366.03;5029108;28;20465;-75
2021/01/09 09:55:27;;;;;;;30.63;15.45;;;;;;;0.17;97.78;102358.00;5033661;28;20426;-77
2021/01/09 09:58:10;;;;;;;30.73;15.93;;;;;;;0.23;97.29;102363.03;5001487;28;20039;-76
2021/01/09 10:00:45;;;;;;;29.63;15.37;;;;;;;0.19;97.44;102364.00;5018630;28;20033;-77
2021/01/09 10:03:12;;;;;;;25.52;14.82;;;;;;;0.29;96.92;102360.28;5026108;28;20273;-80
2021/01/09 10:05:38;;;;;;;30.75;16.38;;;;;;;0.25;96.47;102361.25;5016076;28;20024;-78
2021/01/09 10:08:12;;;;;;;31.83;16.90;;;;;;;0.22;97.41;102366.50;5036460;28;20082;-76
2021/01/09 10:10:49;;;;;;;27.77;15.43;;;;;;;0.19;97.01;102358.84;5034834;28;20410;-78
2021/01/09 10:13:26;;;;;;;33.63;17.27;;;;;;;0.26;97.63;102369.84;5033544;28;20039;-78
2021/01/09 10:15:52;;;;;;;31.63;16.75;;;;;;;0.17;98.21;102374.38;5008870;28;20042;-77
2021/01/09 10:18:17;;;;;;;33.42;16.52;;;;;;;0.11;97.47;102371.91;5000721;28;20041;-77
2021/01/09 10:20:43;;;;;;;31.88;16.88;;;;;;;0.11;97.92;102371.06;5025375;28;20045;-78
2021/01/09 10:23:08;;;;;;;34.13;16.52;;;;;;;0.18;97.58;102376.03;5039184;28;20048;-78
2021/01/09 10:25:34;;;;;;;34.00;16.67;;;;;;;0.29;97.50;102370.59;5002311;28;20047;-77
2021/01/09 10:27:59;;;;;;;30.48;16.00;;;;;;;0.11;96.93;102366.75;5029005;28;20573;-76
2021/01/09 10:30:25;;;;;;;31.25;16.63;;;;;;;0.13;97.31;102375.34;5043564;28;20037;-77
2021/01/09 10:32:50;;;;;;;36.45;16.67;;;;;;;0.17;97.96;102374.38;5035639;28;20041;-78
2021/01/09 10:35:16;;;;;;;35.53;16.98;;;;;;;0.22;98.04;102375.97;5017378;28;20044;-76
2021/01/09 10:37:41;;;;;;;34.30;17.70;;;;;;;0.28;97.52;102371.47;5033998;28;20060;-76
2021/01/09 10:40:08;;;;;;;31.10;15.35;;;;;;;0.24;97.60;102372.44;5037946;28;20406;-77
2021/01/09 10:42:33;;;;;;;33.35;16.65;;;;;;;0.30;98.38;102369.72;5021244;28;20045;-78
2021/01/09 10:44:59;;;;;;;28.70;15.35;;;;;;;0.51;97.42;102375.19;5053742;28;20036;-76
2021/01/09 10:47:24;;;;;;;29.13;15.93;;;;;;;0.43;97.43;102359.91;5035102;28;20045;-76
2021/01/09 10:49:50;;;;;;;34.58;16.30;;;;;;;0.51;97.43;102375.19;5017524;28;20085;-78
2021/01/09 10:52:15;;;;;;;33.13;16.92;;;;;;;0.43;97.42;102365.06;5009888;28;20144;-75
2021/01/09 10:54:41;;;;;;;28.58;14.60;;;;;;;0.41;96.58;102372.00;5018567;28;20128;-77
2021/01/09 10:57:06;;;;;;;30.00;16.10;;;;;;;0.41;96.65;102368.59;5033797;28;20148;-77
2021/01/09 10:59:32;;;;;;;32.22;16.75;;;;;;;0.43;96.55;102371.97;5017601;28;20821;-78
2021/01/09 11:01:57;;;;;;;28.48;15.85;;;;;;;0.45;96.61;102371.03;5043424;28;20106;-76
2021/01/09 11:04:24;;;;;;;30.00;15.93;;;;;;;0.50;96.30;102363.19;5054125;28;20132;-78
2021/01/09 11:06:49;;;;;;;30.95;16.75;;;;;;;0.46;96.75;102375.31;5038655;28;20041;-77
2021/01/09 11:09:15;;;;;;;31.13;15.63;;;;;;;0.54;95.77;102372.53;5034122;28;20032;-78
2021/01/09 11:11:46;;;;;;;28.55;15.65;;;;;;;0.51;96.09;102370.91;5021518;28;20045;-76